createdAt,value
2023-02-25T00:01:13.436Z,96342.66
2023-02-25T00:03:40.198Z,96339.09
2023-02-25T00:06:07.592Z,96354.56
2023-02-25T00:08:34.880Z,96355.47
2023-02-25T00:11:02.791Z,96350.16
2023-02-25T00:13:29.381Z,96347.53
2023-02-25T00:15:58.138Z,96359.03
2023-02-25T00:18:25.980Z,96364.09
2023-02-25T00:20:52.568Z,96362.13
2023-02-25T00:23:19.214Z,96368.41
2023-02-25T00:25:46.135Z,96375.50
2023-02-25T00:28:12.792Z,96367.75
2023-02-25T00:30:40.665Z,96370.47
2023-02-25T00:33:07.359Z,96366.09
2023-02-25T00:35:34.730Z,96367.91
2023-02-25T00:38:15.765Z,96361.81
2023-02-25T00:40:45.418Z,96371.28
2023-02-25T00:43:12.038Z,96369.34
2023-02-25T00:45:40.442Z,96367.72
2023-02-25T00:48:07.623Z,96374.72
2023-02-25T00:50:35.856Z,96380.09
2023-02-25T00:53:02.445Z,96374.47
2023-02-25T00:55:33.567Z,96374.75
2023-02-25T00:58:01.312Z,96368.66
2023-02-25T01:00:28.630Z,96363.78
2023-02-25T01:02:56.530Z,96361.59
2023-02-25T01:05:23.898Z,96361.72
2023-02-25T01:07:50.636Z,96361.13
2023-02-25T01:10:17.434Z,96361.38
2023-02-25T01:12:43.985Z,96373.06
2023-02-25T01:15:11.136Z,96376.91
2023-02-25T01:17:37.701Z,96361.66
2023-02-25T01:20:11.144Z,96360.03
2023-02-25T01:22:40.893Z,96362.97
2023-02-25T01:25:11.855Z,96364.25
2023-02-25T01:27:38.429Z,96370.41
2023-02-25T01:30:06.262Z,96361.50
2023-02-25T01:32:33.018Z,96365.81
2023-02-25T01:34:59.810Z,96373.47
2023-02-25T01:37:26.456Z,96373.25
2023-02-25T01:39:53.138Z,96382.00
2023-02-25T01:42:19.733Z,96377.09
2023-02-25T01:45:17.741Z,96379.47
2023-02-25T01:48:09.670Z,96387.59
2023-02-25T01:50:40.435Z,96389.22
2023-02-25T01:53:08.772Z,96391.47
2023-02-25T01:55:35.429Z,96392.47
2023-02-25T01:58:02.052Z,96397.72
2023-02-25T02:00:29.658Z,96386.94
2023-02-25T02:02:56.425Z,96381.75
2023-02-25T02:05:26.296Z,96385.47
2023-02-25T02:07:52.873Z,96376.19
2023-02-25T02:10:19.786Z,96378.84
2023-02-25T02:12:46.782Z,96361.75
2023-02-25T02:15:14.232Z,96356.56
2023-02-25T02:17:53.036Z,96358.19
2023-02-25T02:20:21.820Z,96347.81
2023-02-25T02:23:06.617Z,96345.28
2023-02-25T02:25:44.784Z,96345.88
2023-02-25T02:28:36.346Z,96353.53
2023-02-25T02:31:40.655Z,96350.47
2023-02-25T02:34:32.330Z,96355.03
2023-02-25T02:37:10.862Z,96356.22
2023-02-25T02:39:52.076Z,96353.28
2023-02-25T02:42:31.680Z,96361.59
2023-02-25T02:45:10.612Z,96371.84
2023-02-25T02:47:38.781Z,96369.91
2023-02-25T02:50:10.898Z,96365.69
2023-02-25T02:52:46.979Z,96364.25
2023-02-25T02:55:26.193Z,96364.63
2023-02-25T02:58:30.446Z,96365.06
2023-02-25T03:01:09.791Z,96362.25
2023-02-25T03:03:38.618Z,96368.78
2023-02-25T03:06:14.474Z,96368.78
2023-02-25T03:08:47.418Z,96364.38
2023-02-25T03:11:14.044Z,96357.06
2023-02-25T03:13:40.883Z,96362.97
2023-02-25T03:16:10.558Z,96364.56
2023-02-25T03:18:42.130Z,96358.84
2023-02-25T03:21:13.213Z,96363.59
2023-02-25T03:23:41.803Z,96354.84
2023-02-25T03:26:30.103Z,96359.50
2023-02-25T03:29:01.097Z,96363.22
2023-02-25T03:32:06.894Z,96365.69
2023-02-25T03:34:37.020Z,96369.91
2023-02-25T03:37:06.162Z,96360.94
2023-02-25T03:39:36.222Z,96370.59
2023-02-25T03:42:03.797Z,96360.59
2023-02-25T03:44:33.323Z,96359.91
2023-02-25T03:47:00.182Z,96369.38
2023-02-25T03:49:33.321Z,96364.50
2023-02-25T03:52:01.145Z,96383.84
2023-02-25T03:54:27.818Z,96384.03
2023-02-25T03:56:54.573Z,96377.75
2023-02-25T03:59:26.215Z,96372.03
2023-02-25T04:01:52.860Z,96374.28
2023-02-25T04:04:19.634Z,96377.53
2023-02-25T04:06:47.335Z,96388.91
2023-02-25T04:09:14.390Z,96378.19
2023-02-25T04:11:41.764Z,96382.94
2023-02-25T04:14:08.421Z,96385.38
2023-02-25T04:16:35.580Z,96385.66
2023-02-25T04:19:03.285Z,96384.41
2023-02-25T04:21:35.481Z,96387.81
2023-02-25T04:24:03.118Z,96384.75
2023-02-25T04:26:29.836Z,96377.94
2023-02-25T04:28:56.467Z,96383.13
2023-02-25T04:31:23.273Z,96370.50
2023-02-25T04:33:50.133Z,96379.88
2023-02-25T04:36:28.877Z,96363.66
2023-02-25T04:38:55.946Z,96362.97
2023-02-25T04:41:23.348Z,96360.53
2023-02-25T04:43:49.969Z,96361.66
2023-02-25T04:46:16.689Z,96362.47
2023-02-25T04:48:43.295Z,96356.91
2023-02-25T04:51:09.929Z,96347.00
2023-02-25T04:53:36.526Z,96344.66
2023-02-25T04:56:04.867Z,96341.50
2023-02-25T04:58:32.178Z,96344.91
2023-02-25T05:01:02.131Z,96338.69
2023-02-25T05:03:29.062Z,96343.59
2023-02-25T05:05:55.768Z,96345.56
2023-02-25T05:08:22.701Z,96336.97
2023-02-25T05:10:49.529Z,96349.91
2023-02-25T05:13:16.220Z,96350.47
2023-02-25T05:15:42.967Z,96351.78
2023-02-25T05:18:09.605Z,96345.06
2023-02-25T05:20:41.231Z,96332.41
2023-02-25T05:23:08.103Z,96335.31
2023-02-25T05:25:35.039Z,96344.41
2023-02-25T05:28:01.717Z,96339.06
2023-02-25T05:30:28.383Z,96334.47
2023-02-25T05:32:55.088Z,96340.84
2023-02-25T05:35:21.761Z,96342.44
2023-02-25T05:37:48.397Z,96340.78
2023-02-25T05:40:15.125Z,96334.78
2023-02-25T05:42:41.724Z,96344.06
2023-02-25T05:45:09.038Z,96340.91
2023-02-25T05:47:35.917Z,96347.31
2023-02-25T05:50:02.988Z,96351.47
2023-02-25T05:52:29.587Z,96350.97
2023-02-25T05:54:56.277Z,96355.88
2023-02-25T05:57:23.867Z,96362.97
2023-02-25T05:59:50.710Z,96378.84
2023-02-25T06:02:17.393Z,96386.81
2023-02-25T06:04:44.019Z,96373.19
2023-02-25T06:07:10.634Z,96362.38
2023-02-25T06:09:37.537Z,96365.47
2023-02-25T06:12:04.443Z,96387.81
2023-02-25T06:14:31.059Z,96391.72
2023-02-25T06:16:57.847Z,96387.03
2023-02-25T06:19:26.327Z,96380.91
2023-02-25T06:21:54.817Z,96379.97
2023-02-25T06:24:22.491Z,96400.22
2023-02-25T06:26:49.120Z,96404.72
2023-02-25T06:29:15.708Z,96416.91
2023-02-25T06:31:43.358Z,96428.28
2023-02-25T06:34:10.357Z,96427.34
2023-02-25T06:36:37.020Z,96432.34
2023-02-25T06:39:05.702Z,96447.59
2023-02-25T06:41:32.332Z,96449.31
2023-02-25T06:43:58.918Z,96461.22
2023-02-25T06:46:26.622Z,96468.19
2023-02-25T06:48:53.833Z,96466.50
2023-02-25T06:51:20.473Z,96470.78
2023-02-25T06:53:47.754Z,96484.81
2023-02-25T06:56:15.069Z,96485.19
2023-02-25T06:58:41.835Z,96497.81
2023-02-25T07:01:13.757Z,96500.31
2023-02-25T07:03:40.703Z,96508.75
2023-02-25T07:06:08.850Z,96518.50
2023-02-25T07:08:35.515Z,96528.09
2023-02-25T07:11:17.297Z,96530.03
2023-02-25T07:13:44.549Z,96539.13
2023-02-25T07:16:12.025Z,96548.28
2023-02-25T07:18:39.067Z,96552.09
2023-02-25T07:21:05.914Z,96554.03
2023-02-25T07:23:32.542Z,96563.53
2023-02-25T07:26:03.322Z,96566.25
2023-02-25T07:28:29.955Z,96568.59
2023-02-25T07:30:56.714Z,96567.66
2023-02-25T07:33:23.393Z,96578.78
2023-02-25T07:35:49.998Z,96587.00
2023-02-25T07:38:16.740Z,96583.25
2023-02-25T07:40:43.356Z,96579.16
2023-02-25T07:43:09.995Z,96585.00
2023-02-25T07:45:36.580Z,96588.91
2023-02-25T07:48:03.265Z,96591.31
2023-02-25T07:50:29.921Z,96602.00
2023-02-25T07:52:56.611Z,96601.84
2023-02-25T07:55:23.245Z,96613.50
2023-02-25T07:57:49.953Z,96611.53
2023-02-25T08:00:17.710Z,96603.81
2023-02-25T08:02:44.660Z,96615.31
2023-02-25T08:05:11.656Z,96623.75
2023-02-25T08:07:38.317Z,96620.41
2023-02-25T08:10:05.458Z,96608.16
2023-02-25T08:12:32.272Z,96594.41
2023-02-25T08:15:01.956Z,96589.22
2023-02-25T08:17:32.590Z,96597.97
2023-02-25T08:19:59.211Z,96598.63
2023-02-25T08:22:25.933Z,96599.75
2023-02-25T08:24:52.548Z,96601.34
2023-02-25T08:27:19.174Z,96616.88
2023-02-25T08:29:45.777Z,96613.38
2023-02-25T08:32:12.408Z,96613.78
2023-02-25T08:34:39.158Z,96615.56
2023-02-25T08:37:05.764Z,96614.84
2023-02-25T08:39:35.930Z,96628.91
2023-02-25T08:42:02.664Z,96633.78
2023-02-25T08:44:29.321Z,96633.53
2023-02-25T08:47:01.492Z,96631.91
2023-02-25T08:49:29.138Z,96637.06
2023-02-25T08:51:55.760Z,96637.22
2023-02-25T08:54:22.590Z,96656.97
2023-02-25T08:56:52.293Z,96652.63
2023-02-25T08:59:18.889Z,96650.03
2023-02-25T09:01:45.817Z,96657.09
2023-02-25T09:04:20.223Z,96660.91
2023-02-25T09:06:49.607Z,96668.69
2023-02-25T09:09:16.785Z,96663.25
2023-02-25T09:11:43.597Z,96663.50
2023-02-25T09:14:10.551Z,96678.91
2023-02-25T09:16:37.257Z,96682.03
2023-02-25T09:19:03.962Z,96693.75
2023-02-25T09:21:30.541Z,96696.47
2023-02-25T09:23:58.367Z,96689.13
2023-02-25T09:26:25.089Z,96691.03
2023-02-25T09:28:51.716Z,96695.81
2023-02-25T09:31:18.564Z,96700.28
2023-02-25T09:33:45.397Z,96699.47
2023-02-25T09:36:16.385Z,96702.47
2023-02-25T09:38:43.433Z,96713.91
2023-02-25T09:41:24.774Z,96706.28
2023-02-25T09:44:10.715Z,96704.19
2023-02-25T09:46:41.402Z,96707.59
2023-02-25T09:49:13.512Z,96712.25
2023-02-25T09:51:48.676Z,96716.19
2023-02-25T09:54:18.266Z,96713.56
2023-02-25T09:56:44.935Z,96727.03
2023-02-25T09:59:15.221Z,96728.22
2023-02-25T10:02:13.223Z,96738.38
2023-02-25T10:04:44.815Z,96733.84
2023-02-25T10:07:19.325Z,96739.06
2023-02-25T10:09:56.305Z,96739.88
2023-02-25T10:12:35.488Z,96747.06
2023-02-25T10:15:39.972Z,96751.66
2023-02-25T10:18:14.476Z,96761.59
2023-02-25T10:21:27.458Z,96767.53
2023-02-25T10:24:28.409Z,96774.00
2023-02-25T10:27:00.255Z,96781.53
2023-02-25T10:29:30.134Z,96781.22
2023-02-25T10:31:59.812Z,96799.47
2023-02-25T10:34:28.957Z,96790.34
2023-02-25T10:36:57.454Z,96792.13
2023-02-25T10:39:24.606Z,96796.56
2023-02-25T10:41:51.331Z,96807.72
2023-02-25T10:44:18.159Z,96812.28
2023-02-25T10:46:52.965Z,96806.25
2023-02-25T10:49:21.721Z,96805.88
2023-02-25T10:52:10.310Z,96822.91
2023-02-25T10:54:48.008Z,96820.72
2023-02-25T10:57:16.342Z,96824.31
2023-02-25T10:59:43.505Z,96828.88
2023-02-25T11:02:25.631Z,96828.56
2023-02-25T11:04:52.729Z,96829.84
2023-02-25T11:07:32.703Z,96845.31
2023-02-25T11:10:19.609Z,96834.34
2023-02-25T11:12:52.466Z,96846.09
2023-02-25T11:15:19.977Z,96872.53
2023-02-25T11:17:46.575Z,96873.84
2023-02-25T11:20:27.324Z,96874.69
2023-02-25T11:22:55.279Z,96878.38
2023-02-25T11:25:39.735Z,96886.53
2023-02-25T11:28:08.149Z,96874.34
2023-02-25T11:30:38.575Z,96881.88
2023-02-25T11:33:25.711Z,96884.00
2023-02-25T11:35:59.954Z,96877.44
2023-02-25T11:38:28.738Z,96888.69
2023-02-25T11:40:55.482Z,96883.19
2023-02-25T11:43:27.310Z,96879.06
2023-02-25T11:45:57.503Z,96889.13
2023-02-25T11:48:27.652Z,96889.13
2023-02-25T11:51:23.325Z,96881.19
2023-02-25T11:54:03.006Z,96887.88
2023-02-25T11:56:35.802Z,96891.97
2023-02-25T11:59:14.521Z,96892.78
2023-02-25T12:01:59.392Z,96889.19
2023-02-25T12:04:58.220Z,96894.75
2023-02-25T12:07:24.648Z,96897.97
2023-02-25T12:10:06.171Z,96907.66
2023-02-25T12:12:55.555Z,96906.81
2023-02-25T12:16:08.016Z,96904.47
2023-02-25T12:19:11.852Z,96900.78
2023-02-25T12:22:12.752Z,96910.75
2023-02-25T12:25:00.384Z,96931.63
2023-02-25T12:27:59.077Z,96928.53
2023-02-25T12:30:47.308Z,96926.91
2023-02-25T12:33:31.876Z,96925.78
2023-02-25T12:36:16.445Z,96922.91
2023-02-25T12:39:11.186Z,96925.94
2023-02-25T12:42:02.987Z,96921.38
2023-02-25T12:44:38.844Z,96929.09
2023-02-25T12:47:15.462Z,96928.03
2023-02-25T12:50:02.252Z,96928.53
2023-02-25T12:52:35.433Z,96924.94
2023-02-25T12:55:19.354Z,96937.88
2023-02-25T12:57:49.952Z,96933.50
2023-02-25T13:00:28.511Z,96928.16
2023-02-25T13:03:10.049Z,96925.50
2023-02-25T13:05:58.542Z,96931.28
2023-02-25T13:08:47.465Z,96927.34
2023-02-25T13:11:22.783Z,96924.13
2023-02-25T13:14:08.517Z,96928.25
2023-02-25T13:16:39.172Z,96928.78
2023-02-25T13:19:26.062Z,96928.81
2023-02-25T13:22:04.743Z,96934.56
2023-02-25T13:24:55.691Z,96932.66
2023-02-25T13:27:46.308Z,96924.69
2023-02-25T13:30:47.255Z,96924.16
2023-02-25T13:33:37.187Z,96936.59
2023-02-25T13:36:25.071Z,96929.22
2023-02-25T13:39:19.418Z,96924.09
2023-02-25T13:42:12.652Z,96915.88
2023-02-25T13:45:06.563Z,96911.78
2023-02-25T13:47:55.091Z,96912.75
2023-02-25T13:50:46.861Z,96909.06
2023-02-25T13:53:26.180Z,96915.25
2023-02-25T13:56:11.661Z,96901.34
2023-02-25T13:59:09.047Z,96897.00
2023-02-25T14:01:57.625Z,96896.53
2023-02-25T14:04:54.515Z,96910.34
2023-02-25T14:07:50.702Z,96901.00
2023-02-25T14:10:17.439Z,96920.03
2023-02-25T14:13:11.425Z,96916.47
2023-02-25T14:15:47.614Z,96917.75
2023-02-25T14:18:35.902Z,96924.16
2023-02-25T14:21:11.576Z,96930.28
2023-02-25T14:23:45.827Z,96935.19
2023-02-25T14:26:37.796Z,96930.00
2023-02-25T14:29:21.560Z,96934.16
2023-02-25T14:32:00.649Z,96924.63
2023-02-25T14:34:30.295Z,96931.91
2023-02-25T14:37:20.186Z,96932.66
2023-02-25T14:40:07.687Z,96940.44
2023-02-25T14:42:53.843Z,96942.19
2023-02-25T14:45:22.289Z,96952.19
2023-02-25T14:47:57.922Z,96947.88
2023-02-25T14:50:30.750Z,96950.00
2023-02-25T14:53:01.174Z,96958.25
2023-02-25T14:55:42.948Z,96966.25
2023-02-25T14:58:35.794Z,96973.00
2023-02-25T15:01:23.366Z,96983.66
2023-02-25T15:04:11.689Z,96977.56
2023-02-25T15:07:19.377Z,96981.69
2023-02-25T15:10:23.600Z,96981.94
2023-02-25T15:13:23.403Z,96986.22
2023-02-25T15:16:14.691Z,96977.66
2023-02-25T15:19:00.801Z,97002.66
2023-02-25T15:21:45.000Z,96990.47
2023-02-25T15:24:23.650Z,96983.84
2023-02-25T15:26:50.713Z,96995.69
2023-02-25T15:29:21.408Z,96984.81
2023-02-25T15:32:19.179Z,96978.88
2023-02-25T15:35:00.447Z,96979.31
2023-02-25T15:37:37.363Z,96987.28
2023-02-25T15:40:16.134Z,96995.28
2023-02-25T15:42:55.841Z,96991.22
2023-02-25T15:45:28.488Z,96991.66
2023-02-25T15:48:07.093Z,96991.75
2023-02-25T15:50:42.434Z,96995.72
2023-02-25T15:53:09.300Z,97002.78
2023-02-25T15:55:41.046Z,97013.69
2023-02-25T15:58:43.663Z,97015.72
2023-02-25T16:01:40.254Z,97024.13
2023-02-25T16:04:40.364Z,97027.47
2023-02-25T16:07:07.056Z,97033.47
2023-02-25T16:09:33.840Z,97041.00
2023-02-25T16:12:04.985Z,97049.97
2023-02-25T16:14:32.506Z,97049.91
2023-02-25T16:17:00.577Z,97061.50
2023-02-25T16:19:29.792Z,97064.31
2023-02-25T16:22:01.504Z,97056.47
2023-02-25T16:24:28.234Z,97055.63
2023-02-25T16:26:59.063Z,97058.09
2023-02-25T16:29:37.681Z,97053.97
2023-02-25T16:32:17.288Z,97062.13
2023-02-25T16:34:56.063Z,97067.97
2023-02-25T16:37:37.762Z,97074.44
2023-02-25T16:40:05.035Z,97071.38
2023-02-25T16:42:34.578Z,97095.34
2023-02-25T16:45:04.075Z,97093.22
2023-02-25T16:47:32.246Z,97077.69
2023-02-25T16:50:00.168Z,97062.44
2023-02-25T16:52:32.801Z,97060.81
2023-02-25T16:55:01.036Z,97061.47
2023-02-25T16:57:27.769Z,97043.16
2023-02-25T17:00:18.888Z,97050.66
2023-02-25T17:02:47.777Z,97047.75
2023-02-25T17:05:29.122Z,97046.47
2023-02-25T17:08:01.226Z,97047.41
2023-02-25T17:10:37.511Z,97058.25
2023-02-25T17:13:04.380Z,97067.91
2023-02-25T17:15:32.880Z,97073.75
2023-02-25T17:18:07.660Z,97083.16
2023-02-25T17:20:34.333Z,97090.44
2023-02-25T17:23:04.669Z,97100.28
2023-02-25T17:25:37.270Z,97105.25
2023-02-25T17:28:04.111Z,97117.66
2023-02-25T17:30:47.646Z,97134.81
2023-02-25T17:33:24.069Z,97136.44
2023-02-25T17:35:54.559Z,97141.97
2023-02-25T17:38:22.491Z,97144.22
2023-02-25T17:40:49.872Z,97147.28
2023-02-25T17:43:19.008Z,97149.63
2023-02-25T17:45:50.083Z,97147.72
2023-02-25T17:48:18.806Z,97159.50
2023-02-25T17:51:00.624Z,97178.53
2023-02-25T17:53:45.792Z,97178.75
2023-02-25T17:56:18.573Z,97170.53
2023-02-25T17:58:45.229Z,97185.09
2023-02-25T18:01:23.424Z,97169.09
2023-02-25T18:03:55.257Z,97172.63
2023-02-25T18:06:34.611Z,97181.91
2023-02-25T18:09:04.199Z,97176.91
2023-02-25T18:11:32.975Z,97182.41
2023-02-25T18:14:02.310Z,97172.75
2023-02-25T18:16:37.589Z,97181.34
2023-02-25T18:19:22.617Z,97188.47
2023-02-25T18:21:49.238Z,97195.19
2023-02-25T18:24:23.260Z,97198.72
2023-02-25T18:27:24.695Z,97192.59
2023-02-25T18:29:51.452Z,97189.56
2023-02-25T18:32:18.263Z,97193.69
2023-02-25T18:34:45.066Z,97192.84
2023-02-25T18:37:17.378Z,97195.69
2023-02-25T18:39:46.127Z,97202.94
2023-02-25T18:42:16.345Z,97199.91
2023-02-25T18:44:44.768Z,97190.44
2023-02-25T18:47:11.432Z,97196.13
2023-02-25T18:49:40.733Z,97194.66
2023-02-25T18:52:13.567Z,97183.84
2023-02-25T18:54:41.571Z,97194.44
2023-02-25T18:57:23.223Z,97220.63
2023-02-25T18:59:51.390Z,97202.22
2023-02-25T19:02:29.543Z,97186.06
2023-02-25T19:04:56.325Z,97185.44
2023-02-25T19:07:24.905Z,97181.03
2023-02-25T19:09:51.532Z,97181.53
2023-02-25T19:12:18.565Z,97175.44
2023-02-25T19:14:45.655Z,97173.41
2023-02-25T19:17:16.441Z,97169.50
2023-02-25T19:19:46.426Z,97168.66
2023-02-25T19:22:14.824Z,97185.34
2023-02-25T19:24:42.770Z,97173.56
2023-02-25T19:27:23.884Z,97190.44
2023-02-25T19:29:51.700Z,97194.22
2023-02-25T19:32:18.478Z,97193.94
2023-02-25T19:34:45.680Z,97209.16
2023-02-25T19:37:12.485Z,97209.91
2023-02-25T19:39:39.150Z,97210.63
2023-02-25T19:42:06.017Z,97218.91
2023-02-25T19:44:33.288Z,97228.03
2023-02-25T19:46:59.906Z,97232.63
2023-02-25T19:49:26.690Z,97245.84
2023-02-25T19:51:53.342Z,97250.50
2023-02-25T19:54:20.218Z,97252.78
2023-02-25T19:56:47.098Z,97261.88
2023-02-25T19:59:13.930Z,97263.13
2023-02-25T20:01:40.654Z,97276.31
2023-02-25T20:04:07.692Z,97273.88
2023-02-25T20:06:34.826Z,97287.97
2023-02-25T20:09:06.152Z,97291.00
2023-02-25T20:11:33.323Z,97299.28
2023-02-25T20:14:00.915Z,97306.16
2023-02-25T20:16:27.758Z,97315.22
2023-02-25T20:18:57.409Z,97317.09
2023-02-25T20:21:24.990Z,97316.16
2023-02-25T20:23:52.053Z,97326.03
2023-02-25T20:26:20.067Z,97334.53
2023-02-25T20:28:46.935Z,97331.69
2023-02-25T20:31:15.803Z,97328.97
2023-02-25T20:33:42.783Z,97329.81
2023-02-25T20:36:23.410Z,97331.34
2023-02-25T20:38:53.185Z,97324.38
2023-02-25T20:41:20.048Z,97320.31
2023-02-25T20:43:46.675Z,97335.56
2023-02-25T20:46:23.617Z,97348.25
2023-02-25T20:48:50.726Z,97359.44
2023-02-25T20:51:17.606Z,97356.72
2023-02-25T20:53:44.510Z,97361.66
2023-02-25T20:56:16.374Z,97355.84
2023-02-25T20:58:43.058Z,97371.22
2023-02-25T21:01:09.900Z,97369.66
2023-02-25T21:03:36.544Z,97371.81
2023-02-25T21:06:03.206Z,97373.97
2023-02-25T21:08:29.891Z,97388.00
2023-02-25T21:10:59.254Z,97396.84
2023-02-25T21:13:25.865Z,97375.09
2023-02-25T21:15:57.476Z,97378.78
2023-02-25T21:18:24.068Z,97385.75
2023-02-25T21:20:59.440Z,97372.16
2023-02-25T21:23:27.083Z,97370.25
2023-02-25T21:25:57.436Z,97385.03
2023-02-25T21:28:24.427Z,97383.31
2023-02-25T21:30:51.116Z,97381.66
2023-02-25T21:33:17.951Z,97393.50
2023-02-25T21:35:45.651Z,97367.97
2023-02-25T21:38:14.354Z,97368.31
2023-02-25T21:40:42.130Z,97359.09
2023-02-25T21:43:08.729Z,97361.81
2023-02-25T21:45:35.355Z,97360.03
2023-02-25T21:48:01.949Z,97364.25
2023-02-25T21:50:28.562Z,97371.50
2023-02-25T21:52:55.154Z,97358.38
2023-02-25T21:55:21.943Z,97352.44
2023-02-25T21:57:48.658Z,97353.78
2023-02-25T22:00:15.776Z,97362.34
2023-02-25T22:02:42.410Z,97337.94
2023-02-25T22:05:09.225Z,97342.75
2023-02-25T22:07:36.168Z,97343.44
2023-02-25T22:10:02.795Z,97347.75
2023-02-25T22:12:29.877Z,97335.72
2023-02-25T22:14:56.549Z,97338.22
2023-02-25T22:17:23.186Z,97334.72
2023-02-25T22:19:49.817Z,97329.53
2023-02-25T22:22:16.718Z,97319.88
2023-02-25T22:24:43.373Z,97319.75
2023-02-25T22:27:10.359Z,97306.66
2023-02-25T22:29:36.972Z,97304.44
2023-02-25T22:32:03.648Z,97302.84
2023-02-25T22:34:30.290Z,97301.94
2023-02-25T22:36:57.006Z,97294.66
2023-02-25T22:39:23.664Z,97283.97
2023-02-25T22:41:50.326Z,97278.19
2023-02-25T22:44:17.055Z,97285.69
2023-02-25T22:46:43.893Z,97279.59
2023-02-25T22:49:11.055Z,97272.66
2023-02-25T22:51:42.694Z,97269.22
2023-02-25T22:54:10.157Z,97273.19
2023-02-25T22:56:36.784Z,97267.84
2023-02-25T22:59:03.436Z,97266.22
2023-02-25T23:01:30.141Z,97262.88
2023-02-25T23:03:56.768Z,97260.41
2023-02-25T23:06:34.182Z,97265.09
2023-02-25T23:09:07.657Z,97260.41
2023-02-25T23:11:37.113Z,97240.66
2023-02-25T23:14:03.807Z,97233.44
2023-02-25T23:16:33.493Z,97222.81
2023-02-25T23:19:02.142Z,97225.69
2023-02-25T23:21:29.346Z,97231.00
2023-02-25T23:23:57.195Z,97224.81
2023-02-25T23:26:28.786Z,97224.94
2023-02-25T23:28:56.232Z,97221.72
2023-02-25T23:31:36.913Z,97220.84
2023-02-25T23:34:11.272Z,97218.78
2023-02-25T23:36:38.550Z,97201.81
2023-02-25T23:39:05.884Z,97210.19
2023-02-25T23:41:34.010Z,97221.63
2023-02-25T23:44:01.705Z,97214.31
2023-02-25T23:46:29.799Z,97214.31
2023-02-25T23:48:57.660Z,97210.63
2023-02-25T23:51:24.500Z,97216.13
2023-02-25T23:53:54.733Z,97221.03
2023-02-25T23:56:21.549Z,97209.16
2023-02-25T23:58:51.193Z,97224.56
